Time;durP1;ratioP1;P1;durP2;ratioP2;P2;SDS_P1;SDS_P2;PMS_P1;PMS_P2;Temp;Humidity;BMP_temperature;BMP_pressure;BME280_temperature;BME280_humidity;BME280_pressure;Samples;Min_cycle;Max_cycle;Signal;HPM_P1;HPM_P2
2024/04/21 00:02:19;;;;;;;0.00;0.00;;;4.40;1.00;;;;;;5087004;27;20006;-63
2024/04/21 00:05:05;;;;;;;0.00;0.00;;;4.50;1.00;;;;;;5076519;28;20524;-63
2024/04/21 00:07:31;;;;;;;0.00;0.00;;;4.40;1.00;;;;;;5102179;27;20041;-63
2024/04/21 00:09:57;;;;;;;0.00;0.00;;;4.40;1.00;;;;;;5101553;27;20433;-62
2024/04/21 00:12:23;;;;;;;0.00;0.00;;;4.40;1.00;;;;;;5100604;28;20014;-62
2024/04/21 00:14:49;;;;;;;0.00;0.00;;;4.40;31.20;;;;;;5100337;27;20020;-62
2024/04/21 00:17:15;;;;;;;0.00;0.00;;;4.40;50.80;;;;;;5100852;28;20014;-63
2024/04/21 00:19:41;;;;;;;0.00;0.00;;;4.40;77.40;;;;;;5099941;28;20009;-63
2024/04/21 00:22:07;;;;;;;0.00;0.00;;;4.40;95.80;;;;;;5099824;28;20472;-62
2024/04/21 00:24:33;;;;;;;0.00;0.00;;;4.40;99.90;;;;;;5097535;27;20006;-63
2024/04/21 00:27:00;;;;;;;0.00;0.00;;;4.40;99.90;;;;;;5101088;28;20013;-62
2024/04/21 00:29:28;;;;;;;0.00;0.00;;;4.40;99.90;;;;;;5099416;28;20002;-63
2024/04/21 00:31:54;;;;;;;0.00;0.00;;;4.30;99.90;;;;;;5100869;27;20022;-62
2024/04/21 00:34:19;;;;;;;0.00;0.00;;;4.30;98.00;;;;;;5124088;27;20457;-62
2024/04/21 00:36:47;;;;;;;0.00;0.00;;;4.30;99.90;;;;;;5099305;28;20021;-62
2024/04/21 00:39:12;;;;;;;0.00;0.00;;;4.20;99.90;;;;;;5099345;27;20025;-62
2024/04/21 00:41:38;;;;;;;0.00;0.00;;;4.10;99.90;;;;;;5099273;27;20500;-63
2024/04/21 00:44:04;;;;;;;0.00;0.00;;;4.00;99.90;;;;;;5099530;27;20017;-62
2024/04/21 00:46:30;;;;;;;0.10;0.10;;;3.80;27.90;;;;;;5101098;28;20025;-62
2024/04/21 00:48:56;;;;;;;0.00;0.00;;;3.60;35.30;;;;;;5124508;27;20415;-62
2024/04/21 00:51:23;;;;;;;0.17;0.13;;;3.50;90.60;;;;;;5100169;28;20545;-63
2024/04/21 00:53:50;;;;;;;0.00;0.00;;;3.30;99.90;;;;;;5100653;27;20514;-63
2024/04/21 00:56:19;;;;;;;0.00;0.00;;;3.10;99.90;;;;;;5099899;28;20640;-63
2024/04/21 00:58:45;;;;;;;0.00;0.00;;;3.10;99.90;;;;;;5100533;27;20006;-62
2024/04/21 01:01:12;;;;;;;0.80;0.00;;;3.00;99.90;;;;;;5099748;27;20046;-62
2024/04/21 01:03:38;;;;;;;0.00;0.00;;;3.00;99.90;;;;;;5100135;27;20006;-63
2024/04/21 01:06:04;;;;;;;0.00;0.00;;;2.90;99.90;;;;;;5100632;27;20089;-63
2024/04/21 01:08:30;;;;;;;0.00;0.00;;;2.90;99.90;;;;;;5099186;27;20362;-62
2024/04/21 01:10:56;;;;;;;0.55;0.00;;;2.90;99.90;;;;;;5100119;27;20431;-63
2024/04/21 01:13:22;;;;;;;0.00;0.00;;;2.90;99.90;;;;;;5099233;27;20449;-63
2024/04/21 01:15:52;;;;;;;0.00;0.00;;;2.90;99.90;;;;;;5107186;27;20095;-63
2024/04/21 01:18:19;;;;;;;0.00;0.00;;;2.80;99.90;;;;;;5099172;27;20097;-63
2024/04/21 01:20:46;;;;;;;0.00;0.00;;;2.70;99.90;;;;;;5101546;27;20018;-63
2024/04/21 01:23:18;;;;;;;0.38;0.00;;;2.70;99.90;;;;;;5106766;27;20424;-63
2024/04/21 01:25:46;;;;;;;0.00;0.00;;;2.70;99.90;;;;;;5095045;27;20006;-63
2024/04/21 01:28:12;;;;;;;0.00;0.00;;;2.50;99.90;;;;;;5116937;27;20014;-63
2024/04/21 01:30:38;;;;;;;0.00;0.00;;;2.50;99.90;;;;;;5106498;27;20006;-63
2024/04/21 01:33:24;;;;;;;0.00;0.00;;;2.60;99.90;;;;;;5126829;27;20017;-63
2024/04/21 01:35:50;;;;;;;0.00;0.00;;;2.60;99.90;;;;;;5104500;27;20421;-63
2024/04/21 01:38:16;;;;;;;0.00;0.00;;;2.60;99.90;;;;;;5114528;27;20371;-62
2024/04/21 01:40:42;;;;;;;0.00;0.00;;;2.60;99.90;;;;;;5108610;27;20078;-63
2024/04/21 01:43:09;;;;;;;0.00;0.00;;;2.70;99.90;;;;;;5109794;27;20459;-63
2024/04/21 01:45:35;;;;;;;0.00;0.00;;;2.70;99.90;;;;;;5100355;27;20006;-63
2024/04/21 01:48:02;;;;;;;0.00;0.00;;;2.80;99.90;;;;;;5103518;27;20032;-63
2024/04/21 01:50:28;;;;;;;0.00;0.00;;;2.70;99.90;;;;;;5107249;27;20016;-63
2024/04/21 01:52:54;;;;;;;0.00;0.00;;;2.70;99.90;;;;;;5110491;27;20693;-63
2024/04/21 01:55:20;;;;;;;0.00;0.00;;;2.80;99.90;;;;;;5105398;27;20103;-63
2024/04/21 01:57:46;;;;;;;0.00;0.00;;;2.80;99.90;;;;;;5109400;27;20014;-63
2024/04/21 02:00:12;;;;;;;0.00;0.00;;;2.80;99.90;;;;;;5111339;27;20033;-63
2024/04/21 02:02:38;;;;;;;0.00;0.00;;;2.70;99.90;;;;;;5102225;27;20021;-63
2024/04/21 02:05:04;;;;;;;0.00;0.00;;;2.80;99.90;;;;;;5111312;27;20021;-63
2024/04/21 02:07:38;;;;;;;0.00;0.00;;;2.70;99.90;;;;;;5108975;27;20446;-63
2024/04/21 02:10:05;;;;;;;0.00;0.00;;;2.70;99.90;;;;;;5103957;27;20369;-62
2024/04/21 02:12:31;;;;;;;0.00;0.00;;;2.60;99.90;;;;;;5100189;28;20469;-63
2024/04/21 02:14:57;;;;;;;0.00;0.00;;;2.60;99.90;;;;;;5099332;27;20083;-63
2024/04/21 02:17:22;;;;;;;0.00;0.00;;;2.50;99.90;;;;;;5099528;28;20025;-63
2024/04/21 02:19:48;;;;;;;0.00;0.00;;;2.50;99.90;;;;;;5103512;27;20013;-63
2024/04/21 02:22:15;;;;;;;0.00;0.00;;;2.50;99.90;;;;;;5110542;27;20021;-63
2024/04/21 02:24:43;;;;;;;0.00;0.00;;;2.50;99.90;;;;;;5099482;28;20006;-62
2024/04/21 02:27:09;;;;;;;0.00;0.00;;;2.40;99.90;;;;;;5097903;28;20036;-62
2024/04/21 02:29:35;;;;;;;0.00;0.00;;;2.40;99.90;;;;;;5124549;27;20018;-62
2024/04/21 02:32:03;;;;;;;0.00;0.00;;;2.30;99.90;;;;;;5099322;27;20010;-62
2024/04/21 02:34:29;;;;;;;0.00;0.00;;;2.50;99.90;;;;;;5098616;27;20439;-63
2024/04/21 02:36:54;;;;;;;0.00;0.00;;;2.50;99.90;;;;;;5099750;28;20006;-63
2024/04/21 02:39:21;;;;;;;0.00;0.00;;;2.60;99.90;;;;;;5097782;28;20014;-63
2024/04/21 02:41:47;;;;;;;0.00;0.00;;;2.60;99.90;;;;;;5125463;27;20025;-62
2024/04/21 02:44:13;;;;;;;0.00;0.00;;;2.50;99.90;;;;;;5099020;27;20001;-63
2024/04/21 02:46:39;;;;;;;0.00;0.00;;;2.60;99.90;;;;;;5103405;27;20018;-63
2024/04/21 02:49:05;;;;;;;0.00;0.00;;;2.60;99.90;;;;;;5100629;27;20014;-63
2024/04/21 02:51:31;;;;;;;0.00;0.00;;;2.70;99.90;;;;;;5104895;27;20020;-63
2024/04/21 02:53:57;;;;;;;0.00;0.00;;;2.70;99.90;;;;;;5082140;27;20085;-63
2024/04/21 02:56:31;;;;;;;0.00;0.00;;;2.80;99.90;;;;;;5101308;27;20024;-63
2024/04/21 02:58:58;;;;;;;0.00;0.00;;;2.70;99.90;;;;;;5103309;27;20014;-63
2024/04/21 03:01:46;;;;;;;0.00;0.00;;;2.80;99.90;;;;;;5078386;27;20042;-63
2024/04/21 03:04:12;;;;;;;0.00;0.00;;;2.70;99.90;;;;;;5100975;27;20021;-63
2024/04/21 03:06:38;;;;;;;0.00;0.00;;;2.70;99.90;;;;;;5101873;27;20118;-63
2024/04/21 03:09:04;;;;;;;0.00;0.00;;;2.70;99.90;;;;;;5101510;27;20021;-63
2024/04/21 03:11:30;;;;;;;0.00;0.00;;;2.70;99.90;;;;;;5102069;27;20406;-63
2024/04/21 03:13:56;;;;;;;0.00;0.00;;;2.70;99.90;;;;;;5100253;27;20028;-62
2024/04/21 03:16:42;;;;;;;0.00;0.00;;;2.60;99.90;;;;;;5101617;28;20442;-63
2024/04/21 03:19:28;;;;;;;0.00;0.00;;;2.70;99.90;;;;;;5077360;27;20428;-62
2024/04/21 03:22:16;;;;;;;0.00;0.00;;;2.60;99.90;;;;;;5077619;28;20010;-62
2024/04/21 03:25:03;;;;;;;0.00;0.00;;;2.60;99.90;;;;;;5068748;28;20020;-63
2024/04/21 03:27:50;;;;;;;0.00;0.00;;;2.60;99.90;;;;;;5077240;27;20467;-63
2024/04/21 03:30:36;;;;;;;0.00;0.00;;;2.60;99.90;;;;;;5077901;28;20017;-62
2024/04/21 03:33:22;;;;;;;0.00;0.00;;;2.60;99.90;;;;;;5103282;27;20020;-62
2024/04/21 03:36:09;;;;;;;0.00;0.00;;;2.60;99.90;;;;;;5121278;27;20014;-63
2024/04/21 03:38:55;;;;;;;0.00;0.00;;;2.60;99.90;;;;;;5078643;28;20488;-63
2024/04/21 03:41:41;;;;;;;0.00;0.00;;;2.60;99.90;;;;;;5099068;27;20006;-63
2024/04/21 03:44:28;;;;;;;0.00;0.00;;;2.60;99.90;;;;;;5076293;28;20329;-63
2024/04/21 03:47:13;;;;;;;0.00;0.00;;;2.60;99.90;;;;;;5061853;28;20022;-63
2024/04/21 03:50:06;;;;;;;0.00;0.00;;;2.70;99.90;;;;;;5121595;27;20006;-62
2024/04/21 03:52:52;;;;;;;0.00;0.00;;;2.60;99.90;;;;;;5065919;28;20865;-63
2024/04/21 03:55:38;;;;;;;0.00;0.00;;;2.60;99.90;;;;;;5073067;28;20499;-63
2024/04/21 03:58:24;;;;;;;0.00;0.00;;;2.60;99.90;;;;;;5099540;27;20025;-62
2024/04/21 04:01:10;;;;;;;0.00;0.00;;;2.70;99.90;;;;;;5077050;27;20426;-63
2024/04/21 04:03:55;;;;;;;0.00;0.00;;;2.70;99.90;;;;;;5061667;27;20338;-63
2024/04/21 04:06:41;;;;;;;0.00;0.00;;;2.70;99.90;;;;;;5120649;27;20013;-63
2024/04/21 04:09:27;;;;;;;0.00;0.00;;;2.70;99.90;;;;;;5104368;27;20090;-62
2024/04/21 04:12:14;;;;;;;0.00;0.00;;;2.70;99.90;;;;;;5078311;27;20345;-62
2024/04/21 04:15:00;;;;;;;0.00;0.00;;;2.80;99.90;;;;;;5075798;28;20083;-62
2024/04/21 04:17:46;;;;;;;0.00;0.00;;;2.80;99.90;;;;;;5078140;28;20024;-63
2024/04/21 04:20:33;;;;;;;0.00;0.00;;;2.80;99.90;;;;;;5110184;27;20083;-62
2024/04/21 04:23:21;;;;;;;0.00;0.00;;;2.70;99.90;;;;;;5062141;28;20010;-62
2024/04/21 04:26:07;;;;;;;0.00;0.00;;;2.80;99.90;;;;;;5078465;28;20027;-63
2024/04/21 04:28:53;;;;;;;0.00;0.00;;;2.70;99.90;;;;;;5077412;28;20006;-62
2024/04/21 04:31:39;;;;;;;0.00;0.00;;;2.60;99.90;;;;;;5112069;27;20094;-63
2024/04/21 04:34:05;;;;;;;0.00;0.00;;;2.70;99.90;;;;;;5073684;28;20006;-62
2024/04/21 04:36:31;;;;;;;0.00;0.00;;;2.60;99.90;;;;;;5099489;27;20489;-63
2024/04/21 04:38:56;;;;;;;0.00;0.00;;;2.60;99.90;;;;;;5101686;27;20552;-63
2024/04/21 04:41:43;;;;;;;0.00;0.00;;;2.70;99.90;;;;;;5075717;28;20013;-62
2024/04/21 04:44:29;;;;;;;0.00;0.00;;;2.70;99.90;;;;;;5120265;27;20038;-62
2024/04/21 04:47:15;;;;;;;0.00;0.00;;;2.80;99.90;;;;;;5110308;27;20006;-62
2024/04/21 04:49:41;;;;;;;0.00;0.00;;;2.80;99.90;;;;;;5099556;27;20384;-62
2024/04/21 04:52:27;;;;;;;0.00;0.00;;;2.80;99.90;;;;;;5121744;27;20022;-62
2024/04/21 04:54:53;;;;;;;0.00;0.00;;;3.00;99.90;;;;;;5125516;27;20010;-62
2024/04/21 04:57:19;;;;;;;0.00;0.00;;;2.80;99.90;;;;;;5099594;27;20020;-62
2024/04/21 04:59:46;;;;;;;0.00;0.00;;;2.90;99.90;;;;;;5101301;27;20050;-62
2024/04/21 05:02:11;;;;;;;0.00;0.00;;;3.00;99.90;;;;;;5099548;28;20457;-63
2024/04/21 05:04:37;;;;;;;0.00;0.00;;;2.90;99.90;;;;;;5099835;27;20013;-63
2024/04/21 05:07:03;;;;;;;0.00;0.00;;;2.90;99.90;;;;;;5099378;27;20028;-63
2024/04/21 05:09:30;;;;;;;0.00;0.00;;;3.00;99.90;;;;;;5102071;27;20033;-62
2024/04/21 05:11:57;;;;;;;0.00;0.00;;;3.00;99.90;;;;;;5098727;28;20017;-63
2024/04/21 05:14:23;;;;;;;0.00;0.00;;;3.10;99.90;;;;;;5068381;28;20006;-63
2024/04/21 05:16:49;;;;;;;0.00;0.00;;;3.10;99.90;;;;;;5070205;28;20343;-63
2024/04/21 05:19:14;;;;;;;0.00;0.00;;;3.20;99.90;;;;;;5067698;28;20360;-63
2024/04/21 05:21:40;;;;;;;0.00;0.00;;;3.30;99.90;;;;;;5070886;28;20014;-62
2024/04/21 05:24:07;;;;;;;0.00;0.00;;;3.30;99.90;;;;;;5043518;28;20478;-62
2024/04/21 05:26:33;;;;;;;0.00;0.00;;;3.40;99.90;;;;;;5048108;28;20533;-63
2024/04/21 05:28:59;;;;;;;0.00;0.00;;;3.40;99.90;;;;;;5067358;28;20018;-62
2024/04/21 05:31:25;;;;;;;0.00;0.00;;;3.30;99.90;;;;;;5041919;28;20015;-62
2024/04/21 05:33:51;;;;;;;0.00;0.00;;;3.30;99.90;;;;;;5068045;28;20017;-62
2024/04/21 05:36:17;;;;;;;0.00;0.00;;;3.40;99.90;;;;;;5068729;28;20015;-63
2024/04/21 05:38:42;;;;;;;0.00;0.00;;;3.30;99.90;;;;;;5093575;27;20007;-62
2024/04/21 05:41:08;;;;;;;0.00;0.00;;;3.40;99.90;;;;;;5067669;28;20364;-62
2024/04/21 05:43:34;;;;;;;0.00;0.00;;;3.40;99.90;;;;;;5068481;28;20014;-62
2024/04/21 05:46:01;;;;;;;0.00;0.00;;;3.50;99.90;;;;;;5056153;28;20033;-63
2024/04/21 05:48:27;;;;;;;0.00;0.00;;;3.60;99.90;;;;;;5068645;28;20007;-63
2024/04/21 05:50:53;;;;;;;0.00;0.00;;;3.60;99.90;;;;;;5068128;28;20371;-62
2024/04/21 05:53:18;;;;;;;0.00;0.00;;;3.70;99.90;;;;;;5067894;28;20017;-63
2024/04/21 05:55:48;;;;;;;0.00;0.00;;;3.70;99.90;;;;;;5068817;28;20504;-64
2024/04/21 05:58:14;;;;;;;0.00;0.00;;;3.70;99.90;;;;;;5066868;28;20108;-64
2024/04/21 06:00:40;;;;;;;0.00;0.00;;;3.90;99.90;;;;;;5093718;28;20046;-64
2024/04/21 06:03:07;;;;;;;0.00;0.00;;;3.90;99.90;;;;;;5067447;28;20006;-64
2024/04/21 06:05:33;;;;;;;0.00;0.00;;;3.90;99.90;;;;;;5068792;28;20015;-63
2024/04/21 06:07:59;;;;;;;0.00;0.00;;;4.00;99.90;;;;;;5091669;27;20018;-64
2024/04/21 06:10:25;;;;;;;0.00;0.00;;;4.00;99.90;;;;;;5093291;28;20014;-64
2024/04/21 06:12:53;;;;;;;0.00;0.00;;;4.10;99.90;;;;;;5067381;28;20011;-63
2024/04/21 06:15:20;;;;;;;0.00;0.00;;;4.20;99.90;;;;;;5067834;28;20038;-64
2024/04/21 06:17:46;;;;;;;0.00;0.00;;;4.10;99.90;;;;;;5070607;28;20038;-64
2024/04/21 06:20:11;;;;;;;0.00;0.00;;;4.20;99.90;;;;;;5068717;28;20003;-64
2024/04/21 06:22:40;;;;;;;0.00;0.00;;;4.20;99.90;;;;;;5066376;28;20339;-64
2024/04/21 06:25:12;;;;;;;0.00;0.00;;;4.20;99.90;;;;;;5062450;28;20015;-64
2024/04/21 06:27:39;;;;;;;0.00;0.00;;;4.30;99.90;;;;;;5072498;28;20136;-64
2024/04/21 06:30:06;;;;;;;0.00;0.00;;;4.40;99.90;;;;;;5071763;28;20006;-64
2024/04/21 06:32:31;;;;;;;0.00;0.00;;;4.60;99.90;;;;;;5071510;28;20474;-64
2024/04/21 06:34:57;;;;;;;0.00;0.00;;;4.60;99.90;;;;;;5081048;28;20024;-64
2024/04/21 06:37:23;;;;;;;0.00;0.00;;;4.60;99.90;;;;;;5091245;28;20502;-64
2024/04/21 06:39:49;;;;;;;0.00;0.00;;;4.60;99.90;;;;;;5074551;28;20006;-64
2024/04/21 06:42:15;;;;;;;0.00;0.00;;;4.70;99.90;;;;;;5072300;28;20407;-64
2024/04/21 06:44:41;;;;;;;0.00;0.00;;;4.70;99.90;;;;;;5073763;28;20003;-64
2024/04/21 06:47:07;;;;;;;0.00;0.00;;;4.70;99.90;;;;;;5087423;28;20047;-64
2024/04/21 06:49:36;;;;;;;0.00;0.00;;;4.80;99.90;;;;;;5071613;28;20021;-64
2024/04/21 06:52:05;;;;;;;0.00;0.00;;;4.90;99.90;;;;;;5076416;28;20457;-63
2024/04/21 06:54:31;;;;;;;0.00;0.00;;;5.00;99.90;;;;;;5091610;28;20086;-63
2024/04/21 06:56:58;;;;;;;0.00;0.00;;;5.20;99.90;;;;;;5087151;28;20477;-63
2024/04/21 06:59:24;;;;;;;0.00;0.00;;;5.40;99.90;;;;;;5097195;28;20006;-64
2024/04/21 07:01:51;;;;;;;0.00;0.00;;;5.60;99.90;;;;;;5078307;28;20448;-64
2024/04/21 07:04:18;;;;;;;0.00;0.00;;;5.80;99.90;;;;;;5081753;28;20002;-63
2024/04/21 07:06:44;;;;;;;0.00;0.00;;;6.00;99.90;;;;;;5076936;28;20037;-64
2024/04/21 07:09:10;;;;;;;0.00;0.00;;;6.20;99.90;;;;;;5087738;28;20003;-64
2024/04/21 07:11:36;;;;;;;0.00;0.00;;;6.40;99.90;;;;;;5070830;28;20011;-64
2024/04/21 07:14:02;;;;;;;0.00;0.00;;;6.70;99.90;;;;;;5079385;28;20450;-64
2024/04/21 07:16:28;;;;;;;0.00;0.00;;;6.80;99.90;;;;;;5070876;28;20018;-64
2024/04/21 07:18:54;;;;;;;0.00;0.00;;;7.00;99.90;;;;;;5071415;28;20022;-64
2024/04/21 07:21:20;;;;;;;0.00;0.00;;;7.20;99.90;;;;;;5070577;28;20451;-64
2024/04/21 07:23:46;;;;;;;0.00;0.00;;;7.30;99.90;;;;;;5072678;28;20007;-64
2024/04/21 07:26:14;;;;;;;0.00;0.00;;;7.40;99.90;;;;;;5096116;28;20014;-64
2024/04/21 07:28:44;;;;;;;0.00;0.00;;;7.60;99.90;;;;;;5071657;28;20010;-64
2024/04/21 07:31:10;;;;;;;0.00;0.00;;;7.60;99.90;;;;;;5075207;28;20021;-64
2024/04/21 07:33:36;;;;;;;0.00;0.00;;;7.80;99.90;;;;;;5082630;28;20002;-65
2024/04/21 07:36:01;;;;;;;0.00;0.00;;;7.90;99.90;;;;;;5081463;28;20368;-64
2024/04/21 07:38:27;;;;;;;0.00;0.00;;;7.90;99.90;;;;;;5082757;28;20002;-64
2024/04/21 07:40:53;;;;;;;0.00;0.00;;;8.00;99.90;;;;;;5078800;28;20007;-64
2024/04/21 07:43:19;;;;;;;0.00;0.00;;;8.20;99.90;;;;;;5083543;28;20523;-64
2024/04/21 07:45:51;;;;;;;0.00;0.00;;;8.40;99.90;;;;;;5079003;28;20019;-64
2024/04/21 07:48:17;;;;;;;0.00;0.00;;;8.40;99.90;;;;;;5079598;28;20006;-64
2024/04/21 07:50:46;;;;;;;0.00;0.00;;;8.40;99.90;;;;;;5076448;28;20063;-64
2024/04/21 07:53:14;;;;;;;0.00;0.00;;;8.40;99.90;;;;;;5082328;28;20338;-65
2024/04/21 07:55:40;;;;;;;0.00;0.00;;;8.50;99.90;;;;;;5084685;28;20042;-64
2024/04/21 07:58:06;;;;;;;0.00;0.00;;;8.70;99.90;;;;;;5078738;28;20478;-64
2024/04/21 08:00:35;;;;;;;0.00;0.00;;;8.90;99.90;;;;;;5044655;28;20013;-64
2024/04/21 08:03:01;;;;;;;0.00;0.00;;;9.00;99.90;;;;;;5077495;28;20030;-64
2024/04/21 08:05:29;;;;;;;0.00;0.00;;;9.20;99.90;;;;;;5086033;28;20020;-65
2024/04/21 08:07:55;;;;;;;0.00;0.00;;;9.20;99.90;;;;;;5071310;28;20007;-64
2024/04/21 08:10:21;;;;;;;0.00;0.00;;;9.20;99.90;;;;;;5076825;28;20017;-64
2024/04/21 08:12:47;;;;;;;0.00;0.00;;;9.40;99.90;;;;;;5077640;28;20489;-64
2024/04/21 08:15:13;;;;;;;0.00;0.00;;;9.40;99.90;;;;;;5081072;28;20470;-64
2024/04/21 08:17:39;;;;;;;0.00;0.00;;;9.50;99.90;;;;;;5082013;28;20021;-64
2024/04/21 08:20:06;;;;;;;0.00;0.00;;;9.50;99.90;;;;;;5082685;28;20021;-65
2024/04/21 08:22:32;;;;;;;0.00;0.00;;;9.50;99.90;;;;;;5070825;28;20514;-64
2024/04/21 08:24:58;;;;;;;0.00;0.00;;;9.60;99.90;;;;;;5092777;27;20003;-65
2024/04/21 08:27:24;;;;;;;0.00;0.00;;;9.70;99.90;;;;;;5076548;28;20091;-64
2024/04/21 08:29:51;;;;;;;0.00;0.00;;;9.70;99.90;;;;;;5097011;27;20025;-64
2024/04/21 08:32:16;;;;;;;0.00;0.00;;;9.80;99.90;;;;;;5070447;28;20007;-64
2024/04/21 08:34:42;;;;;;;0.00;0.00;;;10.00;99.90;;;;;;5077090;28;20022;-65
2024/04/21 08:37:09;;;;;;;0.00;0.00;;;10.20;99.90;;;;;;5078175;28;20338;-65
2024/04/21 08:39:36;;;;;;;0.00;0.00;;;10.20;99.90;;;;;;5069717;28;20505;-64
2024/04/21 08:42:01;;;;;;;0.00;0.00;;;10.30;99.90;;;;;;5076231;28;20018;-64
2024/04/21 08:44:29;;;;;;;0.00;0.00;;;10.50;92.60;;;;;;5072786;28;20018;-64
2024/04/21 08:46:58;;;;;;;0.00;0.00;;;10.60;63.60;;;;;;5086780;28;20062;-64
2024/04/21 08:49:24;;;;;;;0.00;0.00;;;10.70;14.80;;;;;;5080277;28;20095;-64
2024/04/21 08:51:50;;;;;;;0.00;0.00;;;10.90;16.60;;;;;;5065790;28;20014;-64
2024/04/21 08:54:16;;;;;;;0.00;0.00;;;10.90;99.90;;;;;;5072025;28;20023;-64
2024/04/21 08:56:51;;;;;;;0.00;0.00;;;10.90;99.90;;;;;;5103632;27;20466;-64
2024/04/21 08:59:22;;;;;;;0.00;0.00;;;10.80;99.90;;;;;;5107132;27;20017;-64
2024/04/21 09:01:49;;;;;;;0.00;0.00;;;10.90;99.90;;;;;;5078947;28;20019;-64
2024/04/21 09:04:15;;;;;;;0.00;0.00;;;11.00;99.90;;;;;;5076042;28;20014;-64
2024/04/21 09:06:44;;;;;;;0.00;0.00;;;10.90;99.90;;;;;;5075299;28;20014;-64
2024/04/21 09:09:10;;;;;;;0.00;0.00;;;10.90;99.90;;;;;;5080089;28;20014;-64
2024/04/21 09:11:39;;;;;;;0.00;0.00;;;11.10;99.90;;;;;;5089930;28;20014;-64
2024/04/21 09:14:05;;;;;;;0.00;0.00;;;11.30;99.90;;;;;;5085081;28;20018;-64
2024/04/21 09:16:32;;;;;;;0.00;0.00;;;11.30;99.90;;;;;;5077995;28;20021;-64
2024/04/21 09:19:03;;;;;;;0.00;0.00;;;11.00;99.90;;;;;;5105580;27;20014;-64
2024/04/21 09:21:29;;;;;;;;;;;11.00;99.90;;;;;;5065307;28;20127;-64
2024/04/21 09:23:57;;;;;;;0.00;0.00;;;11.20;99.90;;;;;;5070663;28;20213;-64
2024/04/21 09:26:22;;;;;;;0.00;0.00;;;11.00;99.90;;;;;;5066807;28;20018;-64
2024/04/21 09:28:49;;;;;;;0.00;0.00;;;10.80;99.90;;;;;;5075711;28;20059;-64
2024/04/21 09:31:21;;;;;;;0.10;0.10;;;10.50;99.90;;;;;;5073087;28;20010;-64
2024/04/21 09:33:49;;;;;;;0.00;0.00;;;10.30;99.90;;;;;;5069968;28;20010;-64
2024/04/21 09:36:15;;;;;;;0.00;0.00;;;10.60;99.90;;;;;;5068786;28;20446;-64
2024/04/21 09:38:41;;;;;;;0.00;0.00;;;11.00;1.00;;;;;;5068932;28;20029;-64
2024/04/21 09:41:08;;;;;;;0.00;0.00;;;11.30;99.90;;;;;;5077633;28;20458;-64
2024/04/21 09:43:35;;;;;;;0.00;0.00;;;11.50;99.90;;;;;;5068436;28;20018;-64
2024/04/21 09:46:04;;;;;;;0.00;0.00;;;11.80;99.90;;;;;;5094389;27;20017;-64
2024/04/21 09:48:33;;;;;;;0.00;0.00;;;12.00;99.90;;;;;;5093957;28;20030;-64
2024/04/21 09:50:59;;;;;;;0.00;0.00;;;11.70;99.90;;;;;;5064199;28;20699;-64
2024/04/21 09:53:27;;;;;;;0.00;0.00;;;11.40;99.90;;;;;;5093332;28;20455;-64
2024/04/21 09:55:55;;;;;;;0.00;0.00;;;11.10;99.90;;;;;;5068040;28;20381;-64
2024/04/21 09:58:24;;;;;;;0.00;0.00;;;10.70;99.90;;;;;;5071657;28;20157;-64
2024/04/21 10:00:52;;;;;;;0.00;0.00;;;10.40;99.90;;;;;;5083491;28;20019;-64
2024/04/21 10:03:19;;;;;;;0.00;0.00;;;10.10;99.90;;;;;;5084455;28;20010;-64
2024/04/21 10:05:47;;;;;;;0.00;0.00;;;9.90;99.90;;;;;;5110352;27;20343;-64
2024/04/21 10:08:13;;;;;;;0.00;0.00;;;9.90;99.90;;;;;;5077799;28;20025;-64
2024/04/21 10:10:40;;;;;;;0.00;0.00;;;9.90;99.90;;;;;;5076824;28;20014;-63
2024/04/21 10:13:07;;;;;;;0.00;0.00;;;10.00;99.90;;;;;;5084971;28;20461;-64
2024/04/21 10:15:35;;;;;;;0.00;0.00;;;10.40;99.90;;;;;;5099442;27;20014;-64
2024/04/21 10:18:01;;;;;;;0.00;0.00;;;10.90;1.00;;;;;;5124876;27;20028;-64
2024/04/21 10:20:44;;;;;;;0.10;0.00;;;11.30;99.90;;;;;;5114675;27;20002;-64
2024/04/21 10:23:11;;;;;;;0.00;0.00;;;11.20;11.20;;;;;;5110886;27;20032;-64
2024/04/21 10:25:43;;;;;;;0.00;0.00;;;10.90;1.00;;;;;;5100817;27;20006;-63
2024/04/21 10:28:25;;;;;;;0.00;0.00;;;10.50;1.00;;;;;;5097991;27;20021;-64
2024/04/21 10:31:01;;;;;;;0.00;0.00;;;10.30;1.00;;;;;;5098584;27;20002;-63
2024/04/21 10:33:28;;;;;;;0.00;0.00;;;10.40;1.00;;;;;;5114646;27;20010;-64
2024/04/21 10:35:54;;;;;;;0.00;0.00;;;10.30;1.00;;;;;;5102340;27;20540;-64
2024/04/21 10:38:20;;;;;;;0.00;0.00;;;10.10;1.00;;;;;;5116015;27;20096;-64
2024/04/21 10:40:48;;;;;;;0.00;0.00;;;9.80;1.00;;;;;;5099822;27;20007;-64
2024/04/21 10:43:24;;;;;;;0.00;0.00;;;9.50;1.00;;;;;;5109557;27;20005;-64
2024/04/21 10:45:59;;;;;;;0.00;0.00;;;9.40;1.00;;;;;;5066564;28;20020;-64
2024/04/21 10:48:29;;;;;;;0.00;0.00;;;9.40;1.00;;;;;;5109491;27;20005;-63
2024/04/21 10:50:56;;;;;;;0.00;0.00;;;9.40;1.00;;;;;;5103917;27;20010;-63
2024/04/21 10:53:22;;;;;;;0.00;0.00;;;9.70;18.60;;;;;;5128213;27;20005;-64
2024/04/21 10:55:51;;;;;;;0.00;0.00;;;9.90;1.00;;;;;;5096713;27;20017;-64
2024/04/21 10:58:19;;;;;;;0.10;0.05;;;10.00;1.00;;;;;;5105241;27;20041;-64
2024/04/21 11:00:45;;;;;;;0.00;0.00;;;10.30;1.00;;;;;;5082405;27;20057;-64
2024/04/21 11:03:11;;;;;;;0.00;0.00;;;10.40;99.90;;;;;;5101358;27;20002;-64
2024/04/21 11:05:50;;;;;;;0.00;0.00;;;10.50;82.80;;;;;;5103873;27;20326;-64
2024/04/21 11:08:20;;;;;;;0.00;0.00;;;10.60;22.60;;;;;;5077643;28;20001;-63
2024/04/21 11:10:46;;;;;;;0.00;0.00;;;10.80;47.30;;;;;;5100493;27;20294;-64
2024/04/21 11:13:12;;;;;;;0.08;0.08;;;11.00;1.00;;;;;;5103206;27;20481;-64
2024/04/21 11:15:49;;;;;;;0.00;0.00;;;11.30;99.90;;;;;;5103421;27;20086;-63
2024/04/21 11:18:16;;;;;;;0.00;0.00;;;11.70;1.00;;;;;;5131733;27;20013;-64
2024/04/21 11:20:42;;;;;;;0.00;0.00;;;11.90;1.00;;;;;;5101797;27;20028;-64
2024/04/21 11:23:16;;;;;;;0.00;0.00;;;12.10;1.00;;;;;;5102667;27;20094;-63
2024/04/21 11:25:46;;;;;;;0.00;0.00;;;12.20;14.90;;;;;;5103862;27;20163;-64
2024/04/21 11:28:13;;;;;;;0.00;0.00;;;12.20;1.00;;;;;;5106256;27;20013;-63
2024/04/21 11:30:40;;;;;;;0.00;0.00;;;12.20;1.00;;;;;;5115750;27;20269;-64
2024/04/21 11:33:06;;;;;;;0.00;0.00;;;11.90;1.00;;;;;;5107137;27;20002;-63
2024/04/21 11:35:35;;;;;;;0.00;0.00;;;11.70;1.00;;;;;;5109824;27;20006;-64
2024/04/21 11:38:00;;;;;;;0.00;0.00;;;11.50;99.90;;;;;;5121216;27;20471;-64
2024/04/21 11:40:27;;;;;;;0.22;0.00;;;11.30;1.00;;;;;;5121605;27;20333;-64
2024/04/21 11:42:52;;;;;;;0.00;0.00;;;11.20;1.00;;;;;;5112089;27;20006;-64
2024/04/21 11:45:29;;;;;;;0.00;0.00;;;11.20;1.00;;;;;;5097776;27;20019;-63
2024/04/21 11:47:59;;;;;;;0.00;0.00;;;11.00;1.00;;;;;;5099826;27;20385;-64
2024/04/21 11:50:26;;;;;;;0.00;0.00;;;10.80;1.00;;;;;;5105009;27;20033;-64
2024/04/21 11:52:53;;;;;;;0.08;0.08;;;10.70;1.00;;;;;;5110088;27;20014;-64
2024/04/21 11:55:19;;;;;;;0.00;0.00;;;10.40;1.00;;;;;;5085775;28;20043;-64
2024/04/21 11:57:45;;;;;;;0.00;0.00;;;10.10;1.00;;;;;;5098178;27;20341;-63
2024/04/21 12:00:11;;;;;;;0.00;0.00;;;9.90;1.00;;;;;;5107397;27;20024;-64
2024/04/21 12:02:37;;;;;;;0.05;0.05;;;10.00;1.00;;;;;;5104320;27;20006;-64
2024/04/21 12:05:03;;;;;;;0.00;0.00;;;10.30;1.00;;;;;;5105919;27;20415;-64
2024/04/21 12:07:29;;;;;;;0.00;0.00;;;10.70;1.00;;;;;;5131197;27;20006;-64
2024/04/21 12:09:55;;;;;;;0.00;0.00;;;11.00;1.00;;;;;;5106596;27;20369;-64
2024/04/21 12:12:21;;;;;;;0.10;0.10;;;10.80;1.00;;;;;;5109284;27;20038;-63
2024/04/21 12:14:47;;;;;;;0.00;0.00;;;10.50;1.00;;;;;;5100536;27;20014;-64
2024/04/21 12:17:17;;;;;;;0.00;0.00;;;10.00;1.00;;;;;;5106565;27;20005;-64
2024/04/21 12:19:44;;;;;;;0.28;0.00;;;9.70;1.00;;;;;;5101467;27;20475;-64
2024/04/21 12:22:10;;;;;;;0.00;0.00;;;9.60;1.00;;;;;;5126369;27;20570;-63
2024/04/21 12:24:35;;;;;;;0.00;0.00;;;10.00;99.90;;;;;;5101769;27;20002;-63
2024/04/21 12:27:01;;;;;;;0.00;0.00;;;10.40;38.00;;;;;;5114323;27;20448;-64
2024/04/21 12:29:27;;;;;;;0.00;0.00;;;10.60;1.00;;;;;;5109346;27;20090;-64
2024/04/21 12:31:53;;;;;;;0.00;0.00;;;10.50;1.00;;;;;;5108401;27;20053;-64
2024/04/21 12:34:19;;;;;;;0.00;0.00;;;10.50;99.90;;;;;;5093431;27;20503;-64
2024/04/21 12:36:46;;;;;;;0.00;0.00;;;10.40;1.00;;;;;;5109736;27;20020;-64
2024/04/21 12:39:11;;;;;;;0.00;0.00;;;10.40;1.00;;;;;;5127062;27;20009;-63
2024/04/21 12:41:37;;;;;;;0.00;0.00;;;10.50;99.90;;;;;;5101689;27;20021;-63
2024/04/21 12:44:04;;;;;;;0.00;0.00;;;10.50;1.00;;;;;;5100294;27;20438;-63
2024/04/21 12:46:31;;;;;;;0.00;0.00;;;10.30;99.90;;;;;;5102030;27;20001;-63
2024/04/21 12:48:58;;;;;;;0.00;0.00;;;10.30;1.00;;;;;;5072990;28;20014;-64
2024/04/21 12:51:24;;;;;;;0.00;0.00;;;10.40;1.00;;;;;;5073261;28;20006;-64
2024/04/21 12:53:50;;;;;;;0.00;0.00;;;10.70;1.00;;;;;;5099922;27;20070;-63
2024/04/21 12:56:18;;;;;;;0.00;0.00;;;11.10;1.00;;;;;;5100878;27;20076;-63
2024/04/21 12:58:44;;;;;;;0.00;0.00;;;11.60;1.00;;;;;;5130400;27;20934;-63
2024/04/21 13:01:10;;;;;;;0.00;0.00;;;11.90;1.00;;;;;;5097113;27;20029;-64
2024/04/21 13:03:37;;;;;;;0.00;0.00;;;11.60;1.00;;;;;;5133921;27;20021;-64
2024/04/21 13:06:03;;;;;;;0.00;0.00;;;11.10;1.00;;;;;;5103142;27;20015;-64